sensor_id;sensor_type;location;lat;lon;timestamp;temperature;humidity
212;DHT22;16228;48.800;9.002;2023-03-01T00:01:15;-2.50;96.90
212;DHT22;16228;48.800;9.002;2023-03-01T00:03:42;-2.50;96.90
212;DHT22;16228;48.800;9.002;2023-03-01T00:06:10;-2.60;96.90
212;DHT22;16228;48.800;9.002;2023-03-01T00:08:37;-2.60;96.90
212;DHT22;16228;48.800;9.002;2023-03-01T00:11:06;-2.70;96.90
212;DHT22;16228;48.800;9.002;2023-03-01T00:13:35;-2.70;96.90
212;DHT22;16228;48.800;9.002;2023-03-01T00:16:04;-2.70;96.90
212;DHT22;16228;48.800;9.002;2023-03-01T00:18:31;-2.80;96.90
212;DHT22;16228;48.800;9.002;2023-03-01T00:20:59;-2.80;96.90
212;DHT22;16228;48.800;9.002;2023-03-01T00:23:26;-2.90;96.90
212;DHT22;16228;48.800;9.002;2023-03-01T00:25:54;-3.00;96.90
212;DHT22;16228;48.800;9.002;2023-03-01T00:28:21;-3.00;96.90
212;DHT22;16228;48.800;9.002;2023-03-01T00:30:50;-2.90;96.90
212;DHT22;16228;48.800;9.002;2023-03-01T00:33:17;-3.00;96.90
212;DHT22;16228;48.800;9.002;2023-03-01T00:35:45;-3.00;96.90
212;DHT22;16228;48.800;9.002;2023-03-01T00:38:12;-3.10;96.90
212;DHT22;16228;48.800;9.002;2023-03-01T00:40:39;-3.10;96.90
212;DHT22;16228;48.800;9.002;2023-03-01T00:43:06;-3.10;96.90
212;DHT22;16228;48.800;9.002;2023-03-01T00:45:33;-3.10;96.90
212;DHT22;16228;48.800;9.002;2023-03-01T00:48:02;-3.10;96.90
212;DHT22;16228;48.800;9.002;2023-03-01T00:50:30;-3.20;96.90
212;DHT22;16228;48.800;9.002;2023-03-01T00:52:58;-3.20;96.90
212;DHT22;16228;48.800;9.002;2023-03-01T00:55:25;-3.20;96.90
212;DHT22;16228;48.800;9.002;2023-03-01T00:57:52;-3.20;96.90
212;DHT22;16228;48.800;9.002;2023-03-01T01:00:20;-3.20;96.90
212;DHT22;16228;48.800;9.002;2023-03-01T01:02:47;-3.10;96.90
212;DHT22;16228;48.800;9.002;2023-03-01T01:05:16;-3.20;96.90
212;DHT22;16228;48.800;9.002;2023-03-01T01:07:47;-3.20;96.90
212;DHT22;16228;48.800;9.002;2023-03-01T01:10:15;-3.20;96.90
212;DHT22;16228;48.800;9.002;2023-03-01T01:12:43;-3.30;96.90
212;DHT22;16228;48.800;9.002;2023-03-01T01:15:11;-3.40;96.90
212;DHT22;16228;48.800;9.002;2023-03-01T01:17:40;-3.40;96.90
212;DHT22;16228;48.800;9.002;2023-03-01T01:20:08;-3.40;96.90
212;DHT22;16228;48.800;9.002;2023-03-01T01:22:37;-3.40;96.90
212;DHT22;16228;48.800;9.002;2023-03-01T01:25:05;-3.40;96.90
212;DHT22;16228;48.800;9.002;2023-03-01T01:27:32;-3.40;96.90
212;DHT22;16228;48.800;9.002;2023-03-01T01:29:59;-3.50;96.90
212;DHT22;16228;48.800;9.002;2023-03-01T01:32:26;-3.50;96.90
212;DHT22;16228;48.800;9.002;2023-03-01T01:34:53;-3.50;96.90
212;DHT22;16228;48.800;9.002;2023-03-01T01:37:21;-3.50;96.90
212;DHT22;16228;48.800;9.002;2023-03-01T01:39:50;-3.50;96.90
212;DHT22;16228;48.800;9.002;2023-03-01T01:42:18;-3.50;96.90
212;DHT22;16228;48.800;9.002;2023-03-01T01:44:46;-3.50;96.90
212;DHT22;16228;48.800;9.002;2023-03-01T01:47:16;-3.50;96.90
212;DHT22;16228;48.800;9.002;2023-03-01T01:49:47;-3.60;96.90
212;DHT22;16228;48.800;9.002;2023-03-01T01:52:19;-3.60;96.90
212;DHT22;16228;48.800;9.002;2023-03-01T01:54:53;-3.60;96.90
212;DHT22;16228;48.800;9.002;2023-03-01T01:57:25;-3.70;96.90
212;DHT22;16228;48.800;9.002;2023-03-01T01:59:56;-3.70;96.90
212;DHT22;16228;48.800;9.002;2023-03-01T02:02:25;-3.80;96.90
212;DHT22;16228;48.800;9.002;2023-03-01T02:04:58;-3.80;96.90
212;DHT22;16228;48.800;9.002;2023-03-01T02:07:30;-3.80;96.90
212;DHT22;16228;48.800;9.002;2023-03-01T02:09:59;-3.80;96.90
212;DHT22;16228;48.800;9.002;2023-03-01T02:12:26;-3.80;96.90
212;DHT22;16228;48.800;9.002;2023-03-01T02:14:54;-3.70;96.90
212;DHT22;16228;48.800;9.002;2023-03-01T02:17:21;-3.70;96.90
212;DHT22;16228;48.800;9.002;2023-03-01T02:19:58;-3.70;96.90
212;DHT22;16228;48.800;9.002;2023-03-01T02:22:29;-3.70;96.90
212;DHT22;16228;48.800;9.002;2023-03-01T02:25:08;-3.60;96.90
212;DHT22;16228;48.800;9.002;2023-03-01T02:27:42;-3.50;96.90
212;DHT22;16228;48.800;9.002;2023-03-01T02:30:14;-3.40;96.90
212;DHT22;16228;48.800;9.002;2023-03-01T02:32:42;-3.30;96.90
212;DHT22;16228;48.800;9.002;2023-03-01T02:35:09;-3.30;96.90
212;DHT22;16228;48.800;9.002;2023-03-01T02:37:39;-3.30;96.90
212;DHT22;16228;48.800;9.002;2023-03-01T02:40:09;-3.20;96.90
212;DHT22;16228;48.800;9.002;2023-03-01T02:42:43;-3.20;96.90
212;DHT22;16228;48.800;9.002;2023-03-01T02:45:14;-3.10;96.90
212;DHT22;16228;48.800;9.002;2023-03-01T02:47:41;-3.00;96.90
212;DHT22;16228;48.800;9.002;2023-03-01T02:50:22;-2.90;96.90
212;DHT22;16228;48.800;9.002;2023-03-01T02:52:56;-2.80;96.90
212;DHT22;16228;48.800;9.002;2023-03-01T02:55:24;-2.80;96.90
212;DHT22;16228;48.800;9.002;2023-03-01T02:57:54;-2.60;96.90
212;DHT22;16228;48.800;9.002;2023-03-01T03:00:26;-2.50;96.90
212;DHT22;16228;48.800;9.002;2023-03-01T03:02:55;-2.50;96.90
212;DHT22;16228;48.800;9.002;2023-03-01T03:05:25;-2.40;96.90
212;DHT22;16228;48.800;9.002;2023-03-01T03:07:52;-2.30;96.90
212;DHT22;16228;48.800;9.002;2023-03-01T03:10:21;-2.20;96.90
212;DHT22;16228;48.800;9.002;2023-03-01T03:12:49;-2.10;96.90
212;DHT22;16228;48.800;9.002;2023-03-01T03:15:18;-2.10;96.90
212;DHT22;16228;48.800;9.002;2023-03-01T03:17:48;-2.10;96.90
212;DHT22;16228;48.800;9.002;2023-03-01T03:20:17;-2.10;96.90
212;DHT22;16228;48.800;9.002;2023-03-01T03:22:46;-2.10;96.90
212;DHT22;16228;48.800;9.002;2023-03-01T03:25:14;-2.10;96.90
212;DHT22;16228;48.800;9.002;2023-03-01T03:27:42;-2.00;96.90
212;DHT22;16228;48.800;9.002;2023-03-01T03:30:12;-2.00;96.90
212;DHT22;16228;48.800;9.002;2023-03-01T03:32:40;-1.90;96.90
212;DHT22;16228;48.800;9.002;2023-03-01T03:35:10;-1.90;96.90
212;DHT22;16228;48.800;9.002;2023-03-01T03:37:37;-1.80;96.90
212;DHT22;16228;48.800;9.002;2023-03-01T03:40:22;-1.90;96.90
212;DHT22;16228;48.800;9.002;2023-03-01T03:42:49;-1.80;96.90
212;DHT22;16228;48.800;9.002;2023-03-01T03:45:16;-1.80;96.90
212;DHT22;16228;48.800;9.002;2023-03-01T03:47:47;-1.70;96.90
212;DHT22;16228;48.800;9.002;2023-03-01T03:50:17;-1.60;96.90
212;DHT22;16228;48.800;9.002;2023-03-01T03:52:44;-1.50;96.90
212;DHT22;16228;48.800;9.002;2023-03-01T03:55:13;-1.50;96.90
212;DHT22;16228;48.800;9.002;2023-03-01T03:57:46;-1.40;96.90
212;DHT22;16228;48.800;9.002;2023-03-01T04:00:18;-1.30;96.90
212;DHT22;16228;48.800;9.002;2023-03-01T04:02:47;-1.30;96.90
212;DHT22;16228;48.800;9.002;2023-03-01T04:05:17;-1.20;96.90
212;DHT22;16228;48.800;9.002;2023-03-01T04:07:45;-1.20;96.90
212;DHT22;16228;48.800;9.002;2023-03-01T04:10:15;-1.20;96.90
212;DHT22;16228;48.800;9.002;2023-03-01T04:12:43;-1.10;96.90
212;DHT22;16228;48.800;9.002;2023-03-01T04:15:11;-1.10;96.90
212;DHT22;16228;48.800;9.002;2023-03-01T04:17:43;-1.00;96.90
212;DHT22;16228;48.800;9.002;2023-03-01T04:20:13;-1.00;96.90
212;DHT22;16228;48.800;9.002;2023-03-01T04:22:44;-1.00;96.90
212;DHT22;16228;48.800;9.002;2023-03-01T04:25:13;-0.90;96.90
212;DHT22;16228;48.800;9.002;2023-03-01T04:27:41;-0.90;96.90
212;DHT22;16228;48.800;9.002;2023-03-01T04:30:09;-0.80;96.90
212;DHT22;16228;48.800;9.002;2023-03-01T04:32:37;-0.80;96.90
212;DHT22;16228;48.800;9.002;2023-03-01T04:35:04;-0.90;96.90
212;DHT22;16228;48.800;9.002;2023-03-01T04:37:31;-0.80;96.90
212;DHT22;16228;48.800;9.002;2023-03-01T04:40:00;-0.80;96.90
212;DHT22;16228;48.800;9.002;2023-03-01T04:42:33;-0.70;96.90
212;DHT22;16228;48.800;9.002;2023-03-01T04:45:00;-0.70;96.90
212;DHT22;16228;48.800;9.002;2023-03-01T04:47:27;-0.60;96.90
212;DHT22;16228;48.800;9.002;2023-03-01T04:49:55;-0.60;96.90
212;DHT22;16228;48.800;9.002;2023-03-01T04:52:22;-0.60;96.90
212;DHT22;16228;48.800;9.002;2023-03-01T04:54:49;-0.50;96.90
212;DHT22;16228;48.800;9.002;2023-03-01T04:57:18;-0.50;96.90
212;DHT22;16228;48.800;9.002;2023-03-01T04:59:45;-0.50;96.90
212;DHT22;16228;48.800;9.002;2023-03-01T05:02:12;-0.40;96.90
212;DHT22;16228;48.800;9.002;2023-03-01T05:04:40;-0.40;96.90
212;DHT22;16228;48.800;9.002;2023-03-01T05:07:07;-0.40;96.90
212;DHT22;16228;48.800;9.002;2023-03-01T05:09:34;-0.40;96.90
212;DHT22;16228;48.800;9.002;2023-03-01T05:12:02;-0.40;96.90
212;DHT22;16228;48.800;9.002;2023-03-01T05:14:30;-0.40;96.90
212;DHT22;16228;48.800;9.002;2023-03-01T05:17:00;-0.40;96.90
212;DHT22;16228;48.800;9.002;2023-03-01T05:19:29;-0.40;96.90
212;DHT22;16228;48.800;9.002;2023-03-01T05:21:57;-0.40;96.90
212;DHT22;16228;48.800;9.002;2023-03-01T05:24:31;-0.40;96.90
212;DHT22;16228;48.800;9.002;2023-03-01T05:26:59;-0.40;96.90
212;DHT22;16228;48.800;9.002;2023-03-01T05:29:28;-0.40;96.90
212;DHT22;16228;48.800;9.002;2023-03-01T05:31:58;-0.40;96.90
212;DHT22;16228;48.800;9.002;2023-03-01T05:34:28;-0.40;96.90
212;DHT22;16228;48.800;9.002;2023-03-01T05:36:55;-0.30;96.90
212;DHT22;16228;48.800;9.002;2023-03-01T05:39:24;-0.30;96.90
212;DHT22;16228;48.800;9.002;2023-03-01T05:41:53;-0.30;96.90
212;DHT22;16228;48.800;9.002;2023-03-01T05:44:20;-0.30;96.90
212;DHT22;16228;48.800;9.002;2023-03-01T05:46:47;-0.30;96.90
212;DHT22;16228;48.800;9.002;2023-03-01T05:49:16;-0.30;96.90
212;DHT22;16228;48.800;9.002;2023-03-01T05:51:47;-0.30;96.90
212;DHT22;16228;48.800;9.002;2023-03-01T05:54:15;-0.30;96.90
212;DHT22;16228;48.800;9.002;2023-03-01T05:56:42;-0.30;96.90
212;DHT22;16228;48.800;9.002;2023-03-01T05:59:09;-0.20;96.90
212;DHT22;16228;48.800;9.002;2023-03-01T06:01:37;-0.20;96.90
212;DHT22;16228;48.800;9.002;2023-03-01T06:04:04;-0.30;96.90
212;DHT22;16228;48.800;9.002;2023-03-01T06:06:35;-0.30;96.90
212;DHT22;16228;48.800;9.002;2023-03-01T06:09:03;-0.30;96.90
212;DHT22;16228;48.800;9.002;2023-03-01T06:11:30;-0.30;96.90
212;DHT22;16228;48.800;9.002;2023-03-01T06:13:57;-0.30;96.90
212;DHT22;16228;48.800;9.002;2023-03-01T06:16:25;-0.30;96.90
212;DHT22;16228;48.800;9.002;2023-03-01T06:18:52;-0.30;96.90
212;DHT22;16228;48.800;9.002;2023-03-01T06:21:19;-0.30;96.90
212;DHT22;16228;48.800;9.002;2023-03-01T06:23:48;-0.40;96.90
212;DHT22;16228;48.800;9.002;2023-03-01T06:26:15;-0.40;96.90
212;DHT22;16228;48.800;9.002;2023-03-01T06:28:42;-0.40;96.90
212;DHT22;16228;48.800;9.002;2023-03-01T06:31:11;-0.40;96.90
212;DHT22;16228;48.800;9.002;2023-03-01T06:33:38;-0.50;96.90
212;DHT22;16228;48.800;9.002;2023-03-01T06:36:07;-0.50;96.90
212;DHT22;16228;48.800;9.002;2023-03-01T06:38:35;-0.40;96.90
212;DHT22;16228;48.800;9.002;2023-03-01T06:41:04;-0.40;96.90
212;DHT22;16228;48.800;9.002;2023-03-01T06:43:31;-0.40;96.90
212;DHT22;16228;48.800;9.002;2023-03-01T06:45:58;-0.30;96.90
212;DHT22;16228;48.800;9.002;2023-03-01T06:48:25;-0.30;96.90
212;DHT22;16228;48.800;9.002;2023-03-01T06:50:52;-0.30;96.90
212;DHT22;16228;48.800;9.002;2023-03-01T06:53:19;-0.20;96.90
212;DHT22;16228;48.800;9.002;2023-03-01T06:55:46;-0.20;96.90
212;DHT22;16228;48.800;9.002;2023-03-01T06:58:15;-0.20;96.90
212;DHT22;16228;48.800;9.002;2023-03-01T07:00:42;-0.20;96.90
212;DHT22;16228;48.800;9.002;2023-03-01T07:03:10;-0.20;96.90
212;DHT22;16228;48.800;9.002;2023-03-01T07:05:37;-0.10;96.90
212;DHT22;16228;48.800;9.002;2023-03-01T07:08:04;-0.10;96.90
212;DHT22;16228;48.800;9.002;2023-03-01T07:10:32;0.00;96.90
212;DHT22;16228;48.800;9.002;2023-03-01T07:12:59;0.00;96.90
212;DHT22;16228;48.800;9.002;2023-03-01T07:15:28;0.00;96.90
212;DHT22;16228;48.800;9.002;2023-03-01T07:17:56;0.10;96.90
212;DHT22;16228;48.800;9.002;2023-03-01T07:20:23;0.20;96.90
212;DHT22;16228;48.800;9.002;2023-03-01T07:22:51;0.20;96.90
212;DHT22;16228;48.800;9.002;2023-03-01T07:25:18;0.20;96.90
212;DHT22;16228;48.800;9.002;2023-03-01T07:27:49;0.30;96.90
212;DHT22;16228;48.800;9.002;2023-03-01T07:30:17;0.30;96.90
212;DHT22;16228;48.800;9.002;2023-03-01T07:32:46;0.50;96.90
212;DHT22;16228;48.800;9.002;2023-03-01T07:35:14;0.70;96.90
212;DHT22;16228;48.800;9.002;2023-03-01T07:37:41;1.00;96.90
212;DHT22;16228;48.800;9.002;2023-03-01T07:40:10;1.20;96.90
212;DHT22;16228;48.800;9.002;2023-03-01T07:42:37;1.40;96.90
212;DHT22;16228;48.800;9.002;2023-03-01T07:45:06;1.40;96.90
212;DHT22;16228;48.800;9.002;2023-03-01T07:47:33;1.40;96.90
212;DHT22;16228;48.800;9.002;2023-03-01T07:50:02;1.50;96.90
212;DHT22;16228;48.800;9.002;2023-03-01T07:52:30;1.50;96.90
212;DHT22;16228;48.800;9.002;2023-03-01T07:54:57;1.40;96.90
212;DHT22;16228;48.800;9.002;2023-03-01T07:57:24;1.40;96.90
212;DHT22;16228;48.800;9.002;2023-03-01T07:59:52;1.40;96.90
212;DHT22;16228;48.800;9.002;2023-03-01T08:02:19;1.50;96.90
212;DHT22;16228;48.800;9.002;2023-03-01T08:04:50;1.50;96.90
212;DHT22;16228;48.800;9.002;2023-03-01T08:07:34;1.60;96.90
212;DHT22;16228;48.800;9.002;2023-03-01T08:10:12;1.60;96.90
212;DHT22;16228;48.800;9.002;2023-03-01T08:12:43;1.50;96.90
212;DHT22;16228;48.800;9.002;2023-03-01T08:15:11;1.60;96.90
212;DHT22;16228;48.800;9.002;2023-03-01T08:17:38;1.80;96.90
212;DHT22;16228;48.800;9.002;2023-03-01T08:20:06;1.80;96.90
212;DHT22;16228;48.800;9.002;2023-03-01T08:22:35;2.00;96.90
212;DHT22;16228;48.800;9.002;2023-03-01T08:25:02;2.20;96.90
212;DHT22;16228;48.800;9.002;2023-03-01T08:27:29;2.30;96.90
212;DHT22;16228;48.800;9.002;2023-03-01T08:29:56;2.30;96.90
212;DHT22;16228;48.800;9.002;2023-03-01T08:32:24;2.50;96.90
212;DHT22;16228;48.800;9.002;2023-03-01T08:34:51;2.50;96.90
212;DHT22;16228;48.800;9.002;2023-03-01T08:37:18;2.60;96.90
212;DHT22;16228;48.800;9.002;2023-03-01T08:39:47;2.60;96.90
212;DHT22;16228;48.800;9.002;2023-03-01T08:42:14;2.70;96.90
212;DHT22;16228;48.800;9.002;2023-03-01T08:44:41;3.00;96.90
212;DHT22;16228;48.800;9.002;2023-03-01T08:47:08;3.70;96.90
212;DHT22;16228;48.800;9.002;2023-03-01T08:49:36;4.50;96.90
212;DHT22;16228;48.800;9.002;2023-03-01T08:52:03;5.10;96.90
212;DHT22;16228;48.800;9.002;2023-03-01T08:54:30;5.90;96.90
212;DHT22;16228;48.800;9.002;2023-03-01T08:57:01;6.40;95.00
212;DHT22;16228;48.800;9.002;2023-03-01T08:59:28;6.60;94.20
212;DHT22;16228;48.800;9.002;2023-03-01T09:01:56;6.70;92.60
212;DHT22;16228;48.800;9.002;2023-03-01T09:04:23;6.80;92.30
212;DHT22;16228;48.800;9.002;2023-03-01T09:06:50;7.00;90.90
212;DHT22;16228;48.800;9.002;2023-03-01T09:09:17;7.20;91.20
212;DHT22;16228;48.800;9.002;2023-03-01T09:11:45;7.20;89.40
212;DHT22;16228;48.800;9.002;2023-03-01T09:14:14;7.10;89.40
212;DHT22;16228;48.800;9.002;2023-03-01T09:16:41;6.70;89.50
212;DHT22;16228;48.800;9.002;2023-03-01T09:19:09;6.30;91.30
212;DHT22;16228;48.800;9.002;2023-03-01T09:21:37;6.40;92.00
212;DHT22;16228;48.800;9.002;2023-03-01T09:24:05;6.90;90.30
212;DHT22;16228;48.800;9.002;2023-03-01T09:26:33;7.30;89.40
212;DHT22;16228;48.800;9.002;2023-03-01T09:29:00;7.70;88.10
212;DHT22;16228;48.800;9.002;2023-03-01T09:31:28;8.20;87.30
212;DHT22;16228;48.800;9.002;2023-03-01T09:33:56;8.70;86.90
212;DHT22;16228;48.800;9.002;2023-03-01T09:36:24;9.10;85.50
212;DHT22;16228;48.800;9.002;2023-03-01T09:38:52;9.60;83.70
212;DHT22;16228;48.800;9.002;2023-03-01T09:41:36;9.80;82.60
212;DHT22;16228;48.800;9.002;2023-03-01T09:44:13;10.00;81.30
212;DHT22;16228;48.800;9.002;2023-03-01T09:46:45;10.30;80.40
212;DHT22;16228;48.800;9.002;2023-03-01T09:49:15;10.60;79.70
212;DHT22;16228;48.800;9.002;2023-03-01T09:51:50;11.10;78.90
212;DHT22;16228;48.800;9.002;2023-03-01T09:54:20;11.80;77.30
212;DHT22;16228;48.800;9.002;2023-03-01T09:56:57;12.40;76.00
212;DHT22;16228;48.800;9.002;2023-03-01T09:59:30;12.40;74.50
212;DHT22;16228;48.800;9.002;2023-03-01T10:02:12;12.30;74.10
212;DHT22;16228;48.800;9.002;2023-03-01T10:04:46;12.60;74.80
212;DHT22;16228;48.800;9.002;2023-03-01T10:07:21;13.30;73.00
212;DHT22;16228;48.800;9.002;2023-03-01T10:09:53;13.10;72.10
212;DHT22;16228;48.800;9.002;2023-03-01T10:12:22;12.70;72.90
212;DHT22;16228;48.800;9.002;2023-03-01T10:14:55;12.60;72.70
212;DHT22;16228;48.800;9.002;2023-03-01T10:17:32;13.10;72.50
212;DHT22;16228;48.800;9.002;2023-03-01T10:20:16;13.30;71.20
212;DHT22;16228;48.800;9.002;2023-03-01T10:22:45;13.00;72.00
212;DHT22;16228;48.800;9.002;2023-03-01T10:25:29;13.20;73.90
212;DHT22;16228;48.800;9.002;2023-03-01T10:28:02;14.20;71.70
212;DHT22;16228;48.800;9.002;2023-03-01T10:30:35;14.70;69.30
212;DHT22;16228;48.800;9.002;2023-03-01T10:33:13;14.40;68.80
212;DHT22;16228;48.800;9.002;2023-03-01T10:35:42;14.20;70.00
212;DHT22;16228;48.800;9.002;2023-03-01T10:38:11;14.10;68.70
212;DHT22;16228;48.800;9.002;2023-03-01T10:40:50;14.20;71.20
212;DHT22;16228;48.800;9.002;2023-03-01T10:43:19;15.30;68.90
212;DHT22;16228;48.800;9.002;2023-03-01T10:45:47;15.70;65.60
212;DHT22;16228;48.800;9.002;2023-03-01T10:48:16;15.30;67.70
212;DHT22;16228;48.800;9.002;2023-03-01T10:50:46;15.20;68.20
212;DHT22;16228;48.800;9.002;2023-03-01T10:53:25;15.50;66.80
212;DHT22;16228;48.800;9.002;2023-03-01T10:56:00;15.40;66.20
212;DHT22;16228;48.800;9.002;2023-03-01T10:58:28;14.70;68.60
212;DHT22;16228;48.800;9.002;2023-03-01T11:00:57;14.70;67.70
212;DHT22;16228;48.800;9.002;2023-03-01T11:03:27;15.40;69.30
212;DHT22;16228;48.800;9.002;2023-03-01T11:05:59;15.80;66.80
212;DHT22;16228;48.800;9.002;2023-03-01T11:08:31;15.70;66.80
212;DHT22;16228;48.800;9.002;2023-03-01T11:11:23;15.30;66.70
212;DHT22;16228;48.800;9.002;2023-03-01T11:13:55;15.50;67.00
212;DHT22;16228;48.800;9.002;2023-03-01T11:16:29;15.10;66.40
212;DHT22;16228;48.800;9.002;2023-03-01T11:19:04;15.40;67.20
212;DHT22;16228;48.800;9.002;2023-03-01T11:21:42;15.90;66.20
212;DHT22;16228;48.800;9.002;2023-03-01T11:24:12;16.40;64.90
212;DHT22;16228;48.800;9.002;2023-03-01T11:26:42;16.10;64.90
212;DHT22;16228;48.800;9.002;2023-03-01T11:29:18;16.10;65.50
212;DHT22;16228;48.800;9.002;2023-03-01T11:31:48;16.30;65.50
212;DHT22;16228;48.800;9.002;2023-03-01T11:34:23;16.50;65.20
212;DHT22;16228;48.800;9.002;2023-03-01T11:36:56;16.50;65.50
212;DHT22;16228;48.800;9.002;2023-03-01T11:39:30;16.90;65.70
212;DHT22;16228;48.800;9.002;2023-03-01T11:42:04;16.90;64.70
212;DHT22;16228;48.800;9.002;2023-03-01T11:44:36;16.60;63.80
212;DHT22;16228;48.800;9.002;2023-03-01T11:47:33;16.50;64.60
212;DHT22;16228;48.800;9.002;2023-03-01T11:50:15;16.30;63.80
212;DHT22;16228;48.800;9.002;2023-03-01T11:52:57;15.90;66.20
212;DHT22;16228;48.800;9.002;2023-03-01T11:55:36;15.60;65.60
212;DHT22;16228;48.800;9.002;2023-03-01T11:58:34;15.50;65.90
212;DHT22;16228;48.800;9.002;2023-03-01T12:01:20;15.90;65.90
212;DHT22;16228;48.800;9.002;2023-03-01T12:04:30;15.60;65.80
212;DHT22;16228;48.800;9.002;2023-03-01T12:07:05;15.70;65.30
212;DHT22;16228;48.800;9.002;2023-03-01T12:09:51;15.70;65.20
212;DHT22;16228;48.800;9.002;2023-03-01T12:12:32;15.30;66.20
212;DHT22;16228;48.800;9.002;2023-03-01T12:15:31;16.10;65.10
212;DHT22;16228;48.800;9.002;2023-03-01T12:21:13;16.90;63.60
212;DHT22;16228;48.800;9.002;2023-03-01T12:26:59;17.20;64.10
212;DHT22;16228;48.800;9.002;2023-03-01T12:29:32;17.00;64.20
212;DHT22;16228;48.800;9.002;2023-03-01T12:32:20;16.80;63.90
212;DHT22;16228;48.800;9.002;2023-03-01T12:35:11;16.90;64.00
212;DHT22;16228;48.800;9.002;2023-03-01T12:37:48;16.50;63.70
212;DHT22;16228;48.800;9.002;2023-03-01T12:40:46;16.30;65.50
212;DHT22;16228;48.800;9.002;2023-03-01T12:43:27;16.00;65.70
212;DHT22;16228;48.800;9.002;2023-03-01T12:46:07;16.20;65.50
212;DHT22;16228;48.800;9.002;2023-03-01T12:48:43;16.50;64.50
212;DHT22;16228;48.800;9.002;2023-03-01T12:51:15;16.20;64.70
212;DHT22;16228;48.800;9.002;2023-03-01T12:53:46;16.10;64.80
212;DHT22;16228;48.800;9.002;2023-03-01T12:56:17;16.10;66.00
212;DHT22;16228;48.800;9.002;2023-03-01T12:58:53;15.80;65.50
212;DHT22;16228;48.800;9.002;2023-03-01T13:01:29;15.90;66.10
212;DHT22;16228;48.800;9.002;2023-03-01T13:06:58;16.70;65.30
212;DHT22;16228;48.800;9.002;2023-03-01T13:09:36;16.60;64.40
212;DHT22;16228;48.800;9.002;2023-03-01T13:12:42;15.90;64.90
212;DHT22;16228;48.800;9.002;2023-03-01T13:15:25;15.40;66.80
212;DHT22;16228;48.800;9.002;2023-03-01T13:17:54;15.10;66.60
212;DHT22;16228;48.800;9.002;2023-03-01T13:20:25;15.30;67.20
212;DHT22;16228;48.800;9.002;2023-03-01T13:23:02;15.30;66.50
212;DHT22;16228;48.800;9.002;2023-03-01T13:25:30;15.30;66.50
212;DHT22;16228;48.800;9.002;2023-03-01T13:30:59;15.30;67.50
212;DHT22;16228;48.800;9.002;2023-03-01T13:33:46;15.20;67.80
212;DHT22;16228;48.800;9.002;2023-03-01T13:36:47;15.30;67.10
212;DHT22;16228;48.800;9.002;2023-03-01T13:39:31;15.50;67.00
212;DHT22;16228;48.800;9.002;2023-03-01T13:42:00;15.70;66.30
212;DHT22;16228;48.800;9.002;2023-03-01T13:44:31;15.50;66.40
212;DHT22;16228;48.800;9.002;2023-03-01T13:47:14;15.10;67.30
212;DHT22;16228;48.800;9.002;2023-03-01T13:49:46;15.40;67.10
212;DHT22;16228;48.800;9.002;2023-03-01T13:52:37;15.90;67.00
212;DHT22;16228;48.800;9.002;2023-03-01T13:55:16;15.90;67.20
212;DHT22;16228;48.800;9.002;2023-03-01T13:57:46;15.60;67.20
212;DHT22;16228;48.800;9.002;2023-03-01T14:00:28;15.40;66.90
212;DHT22;16228;48.800;9.002;2023-03-01T14:03:12;15.40;68.00
212;DHT22;16228;48.800;9.002;2023-03-01T14:05:41;15.30;68.00
212;DHT22;16228;48.800;9.002;2023-03-01T14:08:21;15.00;68.80
212;DHT22;16228;48.800;9.002;2023-03-01T14:10:57;15.10;69.40
212;DHT22;16228;48.800;9.002;2023-03-01T14:13:35;15.10;69.00
212;DHT22;16228;48.800;9.002;2023-03-01T14:16:16;15.30;68.70
212;DHT22;16228;48.800;9.002;2023-03-01T14:18:49;15.10;68.70
212;DHT22;16228;48.800;9.002;2023-03-01T14:21:20;15.00;69.70
212;DHT22;16228;48.800;9.002;2023-03-01T14:23:48;14.60;69.00
212;DHT22;16228;48.800;9.002;2023-03-01T14:26:21;14.20;69.60
212;DHT22;16228;48.800;9.002;2023-03-01T14:28:49;14.10;71.20
212;DHT22;16228;48.800;9.002;2023-03-01T14:31:32;14.40;70.80
212;DHT22;16228;48.800;9.002;2023-03-01T14:34:02;14.60;70.50
212;DHT22;16228;48.800;9.002;2023-03-01T14:36:32;14.20;69.70
212;DHT22;16228;48.800;9.002;2023-03-01T14:39:00;13.80;71.40
212;DHT22;16228;48.800;9.002;2023-03-01T14:41:33;13.60;71.70
212;DHT22;16228;48.800;9.002;2023-03-01T14:44:03;12.80;72.10
212;DHT22;16228;48.800;9.002;2023-03-01T14:46:34;11.80;74.10
212;DHT22;16228;48.800;9.002;2023-03-01T14:49:06;11.00;76.30
212;DHT22;16228;48.800;9.002;2023-03-01T14:51:37;10.30;77.70
212;DHT22;16228;48.800;9.002;2023-03-01T14:54:20;9.80;79.40
212;DHT22;16228;48.800;9.002;2023-03-01T14:56:48;9.60;81.20
212;DHT22;16228;48.800;9.002;2023-03-01T14:59:15;9.30;81.20
212;DHT22;16228;48.800;9.002;2023-03-01T15:01:43;9.00;81.90
212;DHT22;16228;48.800;9.002;2023-03-01T15:04:13;8.70;83.00
212;DHT22;16228;48.800;9.002;2023-03-01T15:06:41;8.50;83.80
212;DHT22;16228;48.800;9.002;2023-03-01T15:09:13;8.30;84.30
212;DHT22;16228;48.800;9.002;2023-03-01T15:11:42;8.20;85.10
212;DHT22;16228;48.800;9.002;2023-03-01T15:14:27;8.20;85.40
212;DHT22;16228;48.800;9.002;2023-03-01T15:16:55;8.30;85.30
212;DHT22;16228;48.800;9.002;2023-03-01T15:19:27;8.30;85.60
212;DHT22;16228;48.800;9.002;2023-03-01T15:21:55;8.10;85.20
212;DHT22;16228;48.800;9.002;2023-03-01T15:24:25;8.00;86.10
212;DHT22;16228;48.800;9.002;2023-03-01T15:26:56;8.00;86.20
212;DHT22;16228;48.800;9.002;2023-03-01T15:29:29;7.90;86.10
212;DHT22;16228;48.800;9.002;2023-03-01T15:31:59;8.00;86.70
212;DHT22;16228;48.800;9.002;2023-03-01T15:34:29;7.90;86.80
212;DHT22;16228;48.800;9.002;2023-03-01T15:36:59;7.90;87.30
212;DHT22;16228;48.800;9.002;2023-03-01T15:39:33;7.80;86.90
212;DHT22;16228;48.800;9.002;2023-03-01T15:42:05;7.70;87.10
212;DHT22;16228;48.800;9.002;2023-03-01T15:44:34;7.60;87.40
212;DHT22;16228;48.800;9.002;2023-03-01T15:47:01;7.60;87.70
212;DHT22;16228;48.800;9.002;2023-03-01T15:49:37;7.50;87.60
212;DHT22;16228;48.800;9.002;2023-03-01T15:52:08;7.50;88.00
212;DHT22;16228;48.800;9.002;2023-03-01T15:54:36;7.30;88.00
212;DHT22;16228;48.800;9.002;2023-03-01T15:57:04;7.30;88.20
212;DHT22;16228;48.800;9.002;2023-03-01T15:59:32;7.20;88.80
212;DHT22;16228;48.800;9.002;2023-03-01T16:01:59;7.20;88.90
212;DHT22;16228;48.800;9.002;2023-03-01T16:04:26;7.10;88.90
212;DHT22;16228;48.800;9.002;2023-03-01T16:06:55;7.10;89.20
212;DHT22;16228;48.800;9.002;2023-03-01T16:09:23;7.10;89.40
212;DHT22;16228;48.800;9.002;2023-03-01T16:11:51;7.00;89.20
212;DHT22;16228;48.800;9.002;2023-03-01T16:14:19;7.00;90.00
212;DHT22;16228;48.800;9.002;2023-03-01T16:16:47;7.00;90.00
212;DHT22;16228;48.800;9.002;2023-03-01T16:19:14;6.90;89.80
212;DHT22;16228;48.800;9.002;2023-03-01T16:21:42;6.90;89.90
212;DHT22;16228;48.800;9.002;2023-03-01T16:24:14;6.90;89.90
212;DHT22;16228;48.800;9.002;2023-03-01T16:26:41;6.80;90.30
212;DHT22;16228;48.800;9.002;2023-03-01T16:29:08;6.80;90.30
212;DHT22;16228;48.800;9.002;2023-03-01T16:31:36;6.70;90.70
212;DHT22;16228;48.800;9.002;2023-03-01T16:34:03;6.70;90.80
212;DHT22;16228;48.800;9.002;2023-03-01T16:36:30;6.60;90.60
212;DHT22;16228;48.800;9.002;2023-03-01T16:38:59;6.60;90.80
212;DHT22;16228;48.800;9.002;2023-03-01T16:41:30;6.50;90.70
212;DHT22;16228;48.800;9.002;2023-03-01T16:43:57;6.40;91.40